Levante — 9HOB7 — position and weather

sailwx.info

Track history (hours):
 
Tides and Currents Weather Stations Pressure Air Temp Water Temp Dewpoint Dewpoint Depression Visibility Wind Speed Wind Dir Waves Ship Positions

Levante

Last reported at 2016-Jul-28 17:30 UTC. Time now 2016-Jul-29 10:12 UTC.
Position N 45°34' E 013°44'.

Length 188.3 m; beam 28 m; draft 10.1 m.

Type: Ship. MMSI: 215440000.

Date/timePositionNaut miles runAvg speedWind from/ knotsBaromVisibWave heightAir tempDewpointWater temp
2016-Jul-28 17:30N 45°34' E 013°44'2 0.1
2016-Jul-28 02:20N 45°34' E 013°42'2 2.0
2016-Jul-28 01:25N 45°36' E 013°41'0 0.1
2016-Jul-27 22:33N 45°35' E 013°41'4 4.5
2016-Jul-27 21:33N 45°35' E 013°34'7 7.1
2016-Jul-27 20:32N 45°38' E 013°44'2 0.4
2016-Jul-27 15:27N 45°38' E 013°46'  
2016-Jul-25 07:26N 45°16' E 013°13'1412.7
2016-Jul-25 06:22N 45°03' E 013°18'2212.2
2016-Jul-25 04:33N 44°44' E 013°34'1211.7
2016-Jul-25 03:33N 44°34' E 013°43'8511.7
2016-Jul-24 20:16N 43°26' E 014°54'812.1
2016-Jul-24 19:33N 43°19' E 015°01'1211.9
2016-Jul-24 18:33N 43°10' E 015°12'1212.0
2016-Jul-24 17:33N 43°01' E 015°22'1211.9
2016-Jul-24 16:33N 42°51' E 015°33'1111.7
2016-Jul-24 15:34N 42°43' E 015°43'1211.8
2016-Jul-24 14:33N 42°34' E 015°53'8111.5
2016-Jul-24 07:31N 41°38' E 017°12'1212.4
2016-Jul-24 06:33N 41°30' E 017°24'3812.6
2016-Jul-24 03:33N 41°04' E 018°01'2512.5
2016-Jul-24 01:33N 40°44' E 018°22'30411.3
2016-Jul-22 22:33N 36°30' E 014°49'1312.5
2016-Jul-22 21:33N 36°30' E 014°33'1312.8
2016-Jul-22 20:34N 36°32' E 014°17'1313.5
2016-Jul-22 19:34N 36°36' E 014°01'1313.2
2016-Jul-22 18:34N 36°40' E 013°46'1313.0
2016-Jul-22 17:34N 36°44' E 013°30'1313.4
2016-Jul-22 16:34N 36°49' E 013°15'1313.2
2016-Jul-22 15:34N 36°53' E 012°59'1312.5
2016-Jul-22 14:34N 36°57' E 012°44'1312.9
2016-Jul-22 13:34N 37°00' E 012°29'1312.8
2016-Jul-22 12:33N 37°04' E 012°13'1312.7
2016-Jul-22 11:34N 37°09' E 011°59'1212.2
2016-Jul-22 10:33N 37°13' E 011°44'1212.5
2016-Jul-22 09:33N 37°16' E 011°29'1312.7
2016-Jul-22 08:33N 37°21' E 011°14'1513.1
2016-Jul-22 07:27N 37°25' E 010°57'2412.7
2016-Jul-22 05:34N 37°32' E 010°28'1212.3
2016-Jul-22 04:33N 37°35' E 010°12'4312.6
2016-Jul-22 01:10N 37°36' E 009°19'1112.6
2016-Jul-22 00:15N 37°36' E 009°04'912.4
2016-Jul-21 23:33N 37°36' E 008°53'13011.7
2016-Jul-21 12:26N 37°25' E 006°09'1312.4
2016-Jul-21 11:25N 37°23' E 005°53'1112.5
2016-Jul-21 10:33N 37°22' E 005°40'1312.8
2016-Jul-21 09:33N 37°20' E 005°24'1512.7
2016-Jul-21 08:21N 37°18' E 005°05'1113.0
2016-Jul-21 07:31N 37°16' E 004°52'1212.7
2016-Jul-21 06:33N 37°14' E 004°37'1412.5
2016-Jul-21 05:28N 37°12' E 004°20'1112.3
2016-Jul-21 04:33N 37°10' E 004°06'1312.2
2016-Jul-21 03:31N 37°08' E 003°50'1212.2
2016-Jul-21 02:33N 37°06' E 003°36'1212.3
2016-Jul-21 01:34N 37°05' E 003°20'1612.4
2016-Jul-21 00:15N 37°02' E 003°00'912.6
2016-Jul-20 23:33N 37°00' E 002°49'1212.0
2016-Jul-20 22:31N 36°58' E 002°34'1212.0
2016-Jul-20 21:33N 36°57' E 002°20'1212.2
2016-Jul-20 20:34N 36°55' E 002°05'1212.2
2016-Jul-20 19:34N 36°53' E 001°50'1212.1
2016-Jul-20 18:33N 36°51' E 001°35'1212.3
2016-Jul-20 17:33N 36°49' E 001°20'1512.4
2016-Jul-20 16:23N 36°47' E 001°02'1012.1
2016-Jul-20 15:33N 36°45' E 000°49'1212.3
2016-Jul-20 14:33N 36°44' E 000°34'1212.0
2016-Jul-20 13:33N 36°41' E 000°19'1212.2
2016-Jul-20 12:33N 36°39' E 000°04'1212.1
2016-Jul-20 11:33N 36°37' W 000°11'1312.6
2016-Jul-20 10:32N 36°35' W 000°26'1312.8
2016-Jul-20 09:32N 36°34' W 000°42'1412.5
2016-Jul-20 08:23N 36°31' W 001°00'1112.3
2016-Jul-20 07:27N 36°30' W 001°14'1112.0
2016-Jul-20 06:33N 36°28' W 001°27'1212.0
2016-Jul-20 05:33N 36°26' W 001°42'1311.9
2016-Jul-20 04:27N 36°24' W 001°58'1112.2
2016-Jul-20 03:33N 36°22' W 002°12'1212.1
2016-Jul-20 02:31N 36°20' W 002°27'1111.6
2016-Jul-20 01:33N 36°19' W 002°41'12912.9
2016-Jul-19 15:33N 35°59' W 005°19'105 9.4
2016-Jul-19 04:19N 36°03' W 007°29'1011.1
2016-Jul-19 03:24N 36°04' W 007°42'911.0
2016-Jul-19 02:33N 36°06' W 007°53'10112.0
2016-Jul-18 18:09N 36°19' W 009°57'  
Track history (hours):
 
Tides and Currents Weather Stations Pressure Air Temp Water Temp Dewpoint Dewpoint Depression Visibility Wind Speed Wind Dir Waves Ship Positions

Levante

Last reported at 2016-Jul-28 17:30 UTC. Time now 2016-Jul-29 10:12 UTC.
Position N 45°34' E 013°44'.

Length 188.3 m; beam 28 m; draft 10.1 m.

Type: Ship. MMSI: 215440000.

Date/timePositionNaut miles runAvg speedWind from/ knotsBaromVisibWave heightAir tempDewpointWater temp
2016-Jul-28 17:30N 45°34' E 013°44'2 0.1
2016-Jul-28 02:20N 45°34' E 013°42'2 2.0
2016-Jul-28 01:25N 45°36' E 013°41'0 0.1
2016-Jul-27 22:33N 45°35' E 013°41'4 4.5
2016-Jul-27 21:33N 45°35' E 013°34'7 7.1
2016-Jul-27 20:32N 45°38' E 013°44'2 0.4
2016-Jul-27 15:27N 45°38' E 013°46'  
2016-Jul-25 07:26N 45°16' E 013°13'1412.7
2016-Jul-25 06:22N 45°03' E 013°18'2212.2
2016-Jul-25 04:33N 44°44' E 013°34'1211.7
2016-Jul-25 03:33N 44°34' E 013°43'8511.7
2016-Jul-24 20:16N 43°26' E 014°54'812.1
2016-Jul-24 19:33N 43°19' E 015°01'1211.9
2016-Jul-24 18:33N 43°10' E 015°12'1212.0
2016-Jul-24 17:33N 43°01' E 015°22'1211.9
2016-Jul-24 16:33N 42°51' E 015°33'1111.7
2016-Jul-24 15:34N 42°43' E 015°43'1211.8
2016-Jul-24 14:33N 42°34' E 015°53'8111.5
2016-Jul-24 07:31N 41°38' E 017°12'1212.4
2016-Jul-24 06:33N 41°30' E 017°24'3812.6
2016-Jul-24 03:33N 41°04' E 018°01'2512.5
2016-Jul-24 01:33N 40°44' E 018°22'30411.3
2016-Jul-22 22:33N 36°30' E 014°49'1312.5
2016-Jul-22 21:33N 36°30' E 014°33'1312.8
2016-Jul-22 20:34N 36°32' E 014°17'1313.5
2016-Jul-22 19:34N 36°36' E 014°01'1313.2
2016-Jul-22 18:34N 36°40' E 013°46'1313.0
2016-Jul-22 17:34N 36°44' E 013°30'1313.4
2016-Jul-22 16:34N 36°49' E 013°15'1313.2
2016-Jul-22 15:34N 36°53' E 012°59'1312.5
2016-Jul-22 14:34N 36°57' E 012°44'1312.9
2016-Jul-22 13:34N 37°00' E 012°29'1312.8
2016-Jul-22 12:33N 37°04' E 012°13'1312.7
2016-Jul-22 11:34N 37°09' E 011°59'1212.2
2016-Jul-22 10:33N 37°13' E 011°44'1212.5
2016-Jul-22 09:33N 37°16' E 011°29'1312.7
2016-Jul-22 08:33N 37°21' E 011°14'1513.1
2016-Jul-22 07:27N 37°25' E 010°57'2412.7
2016-Jul-22 05:34N 37°32' E 010°28'1212.3
2016-Jul-22 04:33N 37°35' E 010°12'4312.6
2016-Jul-22 01:10N 37°36' E 009°19'1112.6
2016-Jul-22 00:15N 37°36' E 009°04'912.4
2016-Jul-21 23:33N 37°36' E 008°53'13011.7
2016-Jul-21 12:26N 37°25' E 006°09'1312.4
2016-Jul-21 11:25N 37°23' E 005°53'1112.5
2016-Jul-21 10:33N 37°22' E 005°40'1312.8
2016-Jul-21 09:33N 37°20' E 005°24'1512.7
2016-Jul-21 08:21N 37°18' E 005°05'1113.0
2016-Jul-21 07:31N 37°16' E 004°52'1212.7
2016-Jul-21 06:33N 37°14' E 004°37'1412.5
2016-Jul-21 05:28N 37°12' E 004°20'1112.3
2016-Jul-21 04:33N 37°10' E 004°06'1312.2
2016-Jul-21 03:31N 37°08' E 003°50'1212.2
2016-Jul-21 02:33N 37°06' E 003°36'1212.3
2016-Jul-21 01:34N 37°05' E 003°20'1612.4
2016-Jul-21 00:15N 37°02' E 003°00'912.6
2016-Jul-20 23:33N 37°00' E 002°49'1212.0
2016-Jul-20 22:31N 36°58' E 002°34'1212.0
2016-Jul-20 21:33N 36°57' E 002°20'1212.2
2016-Jul-20 20:34N 36°55' E 002°05'1212.2
2016-Jul-20 19:34N 36°53' E 001°50'1212.1
2016-Jul-20 18:33N 36°51' E 001°35'1212.3
2016-Jul-20 17:33N 36°49' E 001°20'1512.4
2016-Jul-20 16:23N 36°47' E 001°02'1012.1
2016-Jul-20 15:33N 36°45' E 000°49'1212.3
2016-Jul-20 14:33N 36°44' E 000°34'1212.0
2016-Jul-20 13:33N 36°41' E 000°19'1212.2
2016-Jul-20 12:33N 36°39' E 000°04'1212.1
2016-Jul-20 11:33N 36°37' W 000°11'1312.6
2016-Jul-20 10:32N 36°35' W 000°26'1312.8
2016-Jul-20 09:32N 36°34' W 000°42'1412.5
2016-Jul-20 08:23N 36°31' W 001°00'1112.3
2016-Jul-20 07:27N 36°30' W 001°14'1112.0
2016-Jul-20 06:33N 36°28' W 001°27'1212.0
2016-Jul-20 05:33N 36°26' W 001°42'1311.9
2016-Jul-20 04:27N 36°24' W 001°58'1112.2
2016-Jul-20 03:33N 36°22' W 002°12'1212.1
2016-Jul-20 02:31N 36°20' W 002°27'1111.6
2016-Jul-20 01:33N 36°19' W 002°41'12912.9
2016-Jul-19 15:33N 35°59' W 005°19'105 9.4
2016-Jul-19 04:19N 36°03' W 007°29'1011.1
2016-Jul-19 03:24N 36°04' W 007°42'911.0
2016-Jul-19 02:33N 36°06' W 007°53'10112.0
2016-Jul-18 18:09N 36°19' W 009°57'  

Dump ship's entire track history